Time;durP1;ratioP1;P1;durP2;ratioP2;P2;SDS_P1;SDS_P2;PMS_P1;PMS_P2;Temp;Humidity;BMP_temperature;BMP_pressure;BME280_temperature;BME280_humidity;BME280_pressure;Samples;Min_cycle;Max_cycle;Signal;HPM_P1;HPM_P2
2021/12/01 07:06:28;;;;;;;;;41.75;40.00;;;;;;;;5156610;27;1581721;-77
2021/12/01 07:08:55;;;;;;;;;46.67;43.00;;;;;;;;5200033;27;22705;-76
2021/12/01 07:11:21;;;;;;;;;47.00;41.33;;;;;;;;5195115;27;13444;-74
2021/12/01 07:13:46;;;;;;;;;49.67;39.33;;;;;;;;5199816;27;11572;-76
2021/12/01 07:16:11;;;;;;;;;34.00;31.67;;;;;;;;5200706;27;11618;-76
2021/12/01 07:18:36;;;;;;;;;;;;;;;;;;5202599;27;13427;-75
2021/12/01 07:21:03;;;;;;;;;43.33;36.33;;;;;;;;5200739;27;22461;-75
2021/12/01 07:23:29;;;;;;;;;41.00;37.00;;;;;;;;5200052;27;24182;-75
2021/12/01 07:25:54;;;;;;;;;49.33;39.00;;;;;;;;5200982;27;11609;-83
2021/12/01 07:28:19;;;;;;;;;;;;;;;;;;5203410;27;10878;-78
2021/12/01 07:30:45;;;;;;;;;35.67;32.67;;;;;;;;5200804;27;22078;-78
2021/12/01 07:33:10;;;;;;;;;40.00;35.00;;;;;;;;5199686;27;22778;-77
2021/12/01 07:35:35;;;;;;;;;;;;;;;;;;5203184;27;14384;-76
2021/12/01 07:38:01;;;;;;;;;44.00;38.75;;;;;;;;5200243;27;22093;-78
2021/12/01 07:40:26;;;;;;;;;;;;;;;;;;5202902;27;24176;-81
2021/12/01 07:42:51;;;;;;;;;39.00;32.67;;;;;;;;5181531;27;22436;-74
2021/12/01 07:45:17;;;;;;;;;52.25;44.00;;;;;;;;5176142;27;23146;-75
2021/12/01 07:47:42;;;;;;;;;55.33;45.00;;;;;;;;5195505;27;13525;-77
2021/12/01 07:50:08;;;;;;;;;47.67;42.00;;;;;;;;5195572;27;13457;-74
2021/12/01 07:52:35;;;;;;;;;48.25;42.00;;;;;;;;5196400;27;13422;-80
2021/12/01 07:55:01;;;;;;;;;56.25;45.00;;;;;;;;5196263;27;13481;-79
2021/12/01 07:57:26;;;;;;;;;53.60;43.40;;;;;;;;5176571;27;14134;-81
2021/12/01 07:59:51;;;;;;;;;53.67;44.33;;;;;;;;5175537;27;13592;-80
2021/12/01 08:02:16;;;;;;;;;46.33;41.00;;;;;;;;5196517;27;13456;-80
2021/12/01 08:04:42;;;;;;;;;;;;;;;;;;5201025;27;13868;-80
2021/12/01 08:07:07;;;;;;;;;40.00;38.33;;;;;;;;5199843;27;22056;-79
2021/12/01 08:09:33;;;;;;;;;56.25;43.50;;;;;;;;5201540;27;23540;-83
2021/12/01 08:11:58;;;;;;;;;51.33;42.00;;;;;;;;5205412;27;13583;-83
2021/12/01 08:14:23;;;;;;;;;50.25;42.00;;;;;;;;5195682;27;14298;-82
2021/12/01 08:16:49;;;;;;;;;43.00;39.33;;;;;;;;5187370;27;13472;-82
2021/12/01 08:19:15;;;;;;;;;47.20;41.00;;;;;;;;5181249;27;13582;-81
2021/12/01 08:21:40;;;;;;;;;;;;;;;;;;5168493;27;15366;-81
2021/12/01 08:24:05;;;;;;;;;;;;;;;;;;5168711;27;24503;-81
2021/12/01 08:26:30;;;;;;;;;;;;;;;;;;5169053;27;8806;-84
2021/12/01 08:28:55;;;;;;;;;;;;;;;;;;5188480;27;8857;-83
2021/12/01 08:31:21;;;;;;;;;41.33;35.67;;;;;;;;5185648;27;8790;-80
2021/12/01 08:33:46;;;;;;;;;46.67;41.33;;;;;;;;5183728;27;22964;-80
2021/12/01 08:36:12;;;;;;;;;;;;;;;;;;5186516;27;12456;-80
2021/12/01 08:38:38;;;;;;;;;45.00;41.00;;;;;;;;5184583;27;23122;-78
2021/12/01 08:41:03;;;;;;;;;;;;;;;;;;5186093;27;23825;-78
2021/12/01 08:43:28;;;;;;;;;46.00;38.33;;;;;;;;5185132;27;22117;-77
2021/12/01 08:45:56;;;;;;;;;55.67;44.67;;;;;;;;5180555;27;22745;-81
2021/12/01 08:48:22;;;;;;;;;58.00;48.25;;;;;;;;5179940;27;13497;-79
2021/12/01 08:50:47;;;;;;;;;58.75;47.00;;;;;;;;5161486;27;13517;-85
2021/12/01 08:53:12;;;;;;;;;56.25;48.00;;;;;;;;5180209;27;14241;-77
2021/12/01 08:55:40;;;;;;;;;;;;;;;;;;5186238;27;11406;-77
2021/12/01 08:58:06;;;;;;;;;;;;;;;;;;5184220;27;22510;-78
2021/12/01 09:00:33;;;;;;;;;47.67;41.00;;;;;;;;5185266;27;8806;-80
2021/12/01 09:02:58;;;;;;;;;;;;;;;;;;5187416;27;22697;-79
2021/12/01 09:05:23;;;;;;;;;;;;;;;;;;5186636;27;22726;-79
2021/12/01 09:07:49;;;;;;;;;48.50;43.00;;;;;;;;5185321;27;8802;-79
2021/12/01 09:10:14;;;;;;;;;;;;;;;;;;5186597;27;23106;-79
2021/12/01 09:12:41;;;;;;;;;49.50;40.50;;;;;;;;5185136;27;22190;-81
2021/12/01 09:15:07;;;;;;;;;;;;;;;;;;5183505;27;24225;-78
2021/12/01 09:17:32;;;;;;;;;45.33;39.33;;;;;;;;5184050;27;22295;-76
2021/12/01 09:19:57;;;;;;;;;;;;;;;;;;5186138;27;22599;-76
2021/12/01 09:22:23;;;;;;;;;45.25;41.50;;;;;;;;5183489;27;22672;-76
2021/12/01 09:24:48;;;;;;;;;39.33;36.67;;;;;;;;5183533;27;22933;-76
2021/12/01 09:27:15;;;;;;;;;22.67;18.33;;;;;;;;5183468;27;15471;-75
2021/12/01 09:29:40;;;;;;;;;36.67;36.67;;;;;;;;5179072;27;13324;-75
2021/12/01 09:32:06;;;;;;;;;36.67;31.33;;;;;;;;5182886;27;13574;-78
2021/12/01 09:34:31;;;;;;;;;;;;;;;;;;5166432;27;9569;-76
2021/12/01 09:36:57;;;;;;;;;48.50;41.25;;;;;;;;5183414;27;23876;-77
2021/12/01 09:39:22;;;;;;;;;38.33;36.67;;;;;;;;5182166;27;23854;-76
2021/12/01 09:41:48;;;;;;;;;41.33;37.00;;;;;;;;5163642;27;15541;-77
2021/12/01 09:44:13;;;;;;;;;;;;;;;;;;5185545;27;13358;-77
2021/12/01 09:46:38;;;;;;;;;36.00;32.75;;;;;;;;5183994;27;22412;-78
2021/12/01 09:49:04;;;;;;;;;;;;;;;;;;5185227;27;22825;-77
2021/12/01 09:51:29;;;;;;;;;41.67;32.33;;;;;;;;5183794;27;22857;-78
2021/12/01 09:53:55;;;;;;;;;37.33;36.67;;;;;;;;5183983;27;23098;-77
2021/12/01 09:56:20;;;;;;;;;45.67;36.00;;;;;;;;5164706;27;15599;-79
2021/12/01 09:58:46;;;;;;;;;44.50;39.00;;;;;;;;5179507;27;14096;-83
2021/12/01 10:01:16;;;;;;;;;38.00;34.67;;;;;;;;5183426;27;11469;-80
2021/12/01 10:03:42;;;;;;;;;37.00;37.00;;;;;;;;5179539;27;13480;-78
2021/12/01 10:06:16;;;;;;;;;34.33;29.00;;;;;;;;5182567;27;12708;-79
2021/12/01 10:08:44;;;;;;;;;40.33;37.00;;;;;;;;5160999;27;13695;-77
2021/12/01 10:11:09;;;;;;;;;32.67;31.00;;;;;;;;5183768;27;10763;-77
2021/12/01 10:13:37;;;;;;;;;36.33;34.00;;;;;;;;5183742;27;12390;-78
2021/12/01 10:16:05;;;;;;;;;34.00;34.00;;;;;;;;5183410;27;10435;-78
2021/12/01 10:18:30;;;;;;;;;;;;;;;;;;5185136;27;9208;-78
2021/12/01 10:21:03;;;;;;;;;35.67;34.33;;;;;;;;5183663;27;23078;-78
2021/12/01 10:23:28;;;;;;;;;32.33;29.33;;;;;;;;5182389;27;22667;-78
2021/12/01 10:25:54;;;;;;;;;;;;;;;;;;5186438;27;11566;-78
2021/12/01 10:28:33;;;;;;;;;32.67;32.00;;;;;;;;5183439;27;22062;-77
2021/12/01 10:30:59;;;;;;;;;35.33;31.33;;;;;;;;5183185;27;22976;-76
2021/12/01 10:33:27;;;;;;;;;39.00;36.00;;;;;;;;5183648;27;11364;-76
2021/12/01 10:35:52;;;;;;;;;35.67;32.00;;;;;;;;5182390;27;11537;-77
2021/12/01 10:38:25;;;;;;;;;32.67;29.67;;;;;;;;5182667;27;10348;-77
2021/12/01 10:41:00;;;;;;;;;39.33;32.33;;;;;;;;5182815;27;12950;-78
2021/12/01 10:43:33;;;;;;;;;39.00;35.33;;;;;;;;5183062;27;12850;-77
2021/12/01 10:45:59;;;;;;;;;;;;;;;;;;5186178;27;9621;-83
2021/12/01 10:48:26;;;;;;;;;32.67;32.00;;;;;;;;5182827;27;23694;-83
2021/12/01 10:50:52;;;;;;;;;36.33;31.67;;;;;;;;5179166;27;22587;-83
2021/12/01 10:53:19;;;;;;;;;45.33;38.33;;;;;;;;5182078;27;11831;-82
2021/12/01 10:55:44;;;;;;;;;;;;;;;;;;5166017;27;16004;-83
2021/12/01 10:58:10;;;;;;;;;41.00;39.33;;;;;;;;5182506;27;22755;-81
2021/12/01 11:00:47;;;;;;;;;48.00;41.67;;;;;;;;5178416;27;23158;-82
2021/12/01 11:03:17;;;;;;;;;39.33;38.00;;;;;;;;5160085;27;14612;-81
2021/12/01 11:05:44;;;;;;;;;43.33;38.33;;;;;;;;5181232;27;13468;-80
2021/12/01 11:08:16;;;;;;;;;46.00;38.00;;;;;;;;5182201;27;13681;-82
2021/12/01 11:10:42;;;;;;;;;37.67;37.00;;;;;;;;5181192;27;12002;-82
2021/12/01 11:13:07;;;;;;;;;;;;;;;;;;5183247;27;12898;-84
2021/12/01 11:15:37;;;;;;;;;39.00;32.33;;;;;;;;5178401;27;22530;-84
2021/12/01 11:18:03;;;;;;;;;46.00;39.00;;;;;;;;5161172;27;23580;-80
2021/12/01 11:20:36;;;;;;;;;38.33;37.33;;;;;;;;5180517;27;13820;-80
2021/12/01 11:23:01;;;;;;;;;;;;;;;;;;5183317;27;14963;-81
2021/12/01 11:25:27;;;;;;;;;50.25;44.75;;;;;;;;5181105;27;22608;-81
2021/12/01 11:27:52;;;;;;;;;53.00;42.00;;;;;;;;5176942;27;23030;-79
2021/12/01 11:30:19;;;;;;;;;47.00;42.33;;;;;;;;5181421;27;11890;-81
2021/12/01 11:32:44;;;;;;;;;59.00;48.75;;;;;;;;5178174;27;13457;-79
2021/12/01 11:35:10;;;;;;;;;38.67;37.00;;;;;;;;5181975;27;12228;-81
2021/12/01 11:37:35;;;;;;;;;;;;;;;;;;5184793;27;13235;-80
2021/12/01 11:40:01;;;;;;;;;40.67;38.67;;;;;;;;5182065;27;22494;-80
2021/12/01 11:42:26;;;;;;;;;42.33;35.67;;;;;;;;5163288;27;23462;-81
2021/12/01 11:44:54;;;;;;;;;55.67;45.00;;;;;;;;5177717;27;13631;-82
2021/12/01 11:47:19;;;;;;;;;;;;;;;;;;5184358;27;13837;-81
2021/12/01 11:49:46;;;;;;;;;41.50;38.50;;;;;;;;5162093;27;23058;-80
2021/12/01 11:52:11;;;;;;;;;;;;;;;;;;5185993;27;22915;-80
2021/12/01 11:54:44;;;;;;;;;46.75;35.75;;;;;;;;5185932;27;23907;-84
2021/12/01 11:57:10;;;;;;;;;37.33;31.67;;;;;;;;5185439;27;22880;-80
2021/12/01 11:59:38;;;;;;;;;;;;;;;;;;5169513;27;15386;-79
2021/12/01 12:02:03;;;;;;;;;;;;;;;;;;5187653;27;22915;-80
2021/12/01 12:04:28;;;;;;;;;40.75;35.75;;;;;;;;5184939;27;8817;-78
2021/12/01 12:07:05;;;;;;;;;54.75;45.50;;;;;;;;5179162;27;22810;-80
2021/12/01 12:09:30;;;;;;;;;58.75;45.00;;;;;;;;5177888;27;14198;-77
2021/12/01 12:11:58;;;;;;;;;51.00;41.00;;;;;;;;5180203;27;13354;-80
2021/12/01 12:14:29;;;;;;;;;49.33;43.33;;;;;;;;5180905;27;10491;-82
2021/12/01 12:17:05;;;;;;;;;58.25;48.50;;;;;;;;5180081;27;13543;-80
2021/12/01 12:19:49;;;;;;;;;50.33;44.67;;;;;;;;5181315;27;13477;-83
2021/12/01 12:22:14;;;;;;;;;57.00;47.40;;;;;;;;5179998;27;13441;-82
2021/12/01 12:24:45;;;;;;;;;57.50;46.75;;;;;;;;5180117;27;13505;-86
2021/12/01 12:27:10;;;;;;;;;;;;;;;;;;5184366;27;11033;-81
2021/12/01 12:29:42;;;;;;;;;57.00;45.67;;;;;;;;5184825;27;22687;-84
2021/12/01 12:32:21;;;;;;;;;58.00;45.67;;;;;;;;5180927;27;23148;-78
2021/12/01 12:34:51;;;;;;;;;62.00;50.00;;;;;;;;5176695;27;14288;-83
2021/12/01 12:37:20;;;;;;;;;53.33;44.00;;;;;;;;5182122;27;13491;-81
2021/12/01 12:39:47;;;;;;;;;58.25;48.00;;;;;;;;5181492;27;13441;-86
2021/12/01 12:42:12;;;;;;;;;62.20;48.60;;;;;;;;5162190;27;13415;-79
2021/12/01 12:44:38;;;;;;;;;;;;;;;;;;5186899;27;13232;-80
2021/12/01 12:47:03;;;;;;;;;;;;;;;;;;5187961;27;22280;-82
2021/12/01 12:49:35;;;;;;;;;46.00;41.50;;;;;;;;5186334;27;8785;-81
2021/12/01 12:52:20;;;;;;;;;46.67;41.33;;;;;;;;5184433;27;22845;-82
2021/12/01 12:54:45;;;;;;;;;;;;;;;;;;5186950;27;9587;-78
2021/12/01 12:57:13;;;;;;;;;49.33;42.67;;;;;;;;5184792;27;22077;-79
2021/12/01 12:59:39;;;;;;;;;59.75;50.00;;;;;;;;5161296;27;22987;-78
2021/12/01 13:02:07;;;;;;;;;58.67;47.00;;;;;;;;5183655;27;13227;-79
2021/12/01 13:04:47;;;;;;;;;58.00;48.00;;;;;;;;5180714;27;12604;-82
2021/12/01 13:07:31;;;;;;;;;62.25;49.25;;;;;;;;5175106;27;13536;-80
2021/12/01 13:10:15;;;;;;;;;51.33;43.67;;;;;;;;5175902;27;13477;-78
2021/12/01 13:12:50;;;;;;;;;53.25;44.25;;;;;;;;5179117;27;13593;-80
2021/12/01 13:15:32;;;;;;;;;56.33;47.00;;;;;;;;5174281;27;13432;-79
2021/12/01 13:18:02;;;;;;;;;62.20;49.60;;;;;;;;5177692;27;13445;-78
2021/12/01 13:20:27;;;;;;;;;;;;;;;;;;5184506;27;13324;-84
2021/12/01 13:22:52;;;;;;;;;;;;;;;;;;5184811;27;22105;-83
2021/12/01 13:25:17;;;;;;;;;45.75;40.25;;;;;;;;5183373;27;8809;-77
2021/12/01 13:27:43;;;;;;;;;60.50;49.25;;;;;;;;5180526;27;22824;-85
2021/12/01 13:30:09;;;;;;;;;55.00;45.67;;;;;;;;5166664;27;12460;-84
2021/12/01 13:32:36;;;;;;;;;53.33;44.33;;;;;;;;5182565;27;13415;-84
2021/12/01 13:35:02;;;;;;;;;62.00;51.60;;;;;;;;5177661;27;13636;-79
2021/12/01 13:37:27;;;;;;;;;;;;;;;;;;5184174;27;13942;-83
2021/12/01 13:39:53;;;;;;;;;53.50;45.00;;;;;;;;5181753;27;23821;-84
2021/12/01 13:42:23;;;;;;;;;;;;;;;;;;5183821;27;22703;-85
2021/12/01 13:44:49;;;;;;;;;47.33;42.33;;;;;;;;5181663;27;22195;-85
2021/12/01 13:47:25;;;;;;;;;43.33;41.00;;;;;;;;5183609;27;24068;-85
2021/12/01 13:49:51;;;;;;;;;61.00;49.00;;;;;;;;5179419;27;13430;-86
2021/12/01 13:52:25;;;;;;;;;60.75;49.50;;;;;;;;5179595;27;13452;-87
2021/12/01 13:54:50;;;;;;;;;;;;;;;;;;5186128;27;11453;-87
2021/12/01 13:57:15;;;;;;;;;;;;;;;;;;5165104;27;25353;-86
2021/12/01 13:59:41;;;;;;;;;;;;;;;;;;5184835;27;8790;-85
2021/12/01 14:02:07;;;;;;;;;46.33;40.33;;;;;;;;5183994;27;8809;-86
2021/12/01 14:04:32;;;;;;;;;;;;;;;;;;5185083;27;23647;-87
2021/12/01 14:06:57;;;;;;;;;;;;;;;;;;5185639;27;22086;-87
2021/12/01 14:09:30;;;;;;;;;55.33;45.33;;;;;;;;5162936;27;8809;-86
2021/12/01 14:12:00;;;;;;;;;57.75;48.75;;;;;;;;5177726;27;24368;-87
2021/12/01 14:14:26;;;;;;;;;60.00;45.00;;;;;;;;5175032;27;13423;-87
2021/12/01 14:16:53;;;;;;;;;51.67;42.00;;;;;;;;5183059;27;13213;-86
2021/12/01 14:19:19;;;;;;;;;57.00;47.00;;;;;;;;5179237;27;13614;-82
2021/12/01 14:21:45;;;;;;;;;55.00;44.67;;;;;;;;5178811;27;14228;-81
2021/12/01 14:24:18;;;;;;;;;57.25;43.00;;;;;;;;5178694;27;13488;-82
2021/12/01 14:26:47;;;;;;;;;45.67;42.00;;;;;;;;5179790;27;13419;-85
2021/12/01 14:29:14;;;;;;;;;52.33;44.00;;;;;;;;5178103;27;13457;-80
2021/12/01 14:31:41;;;;;;;;;44.33;39.33;;;;;;;;5183315;27;12690;-77
2021/12/01 14:34:07;;;;;;;;;57.75;47.50;;;;;;;;5177892;27;14354;-77
2021/12/01 14:36:32;;;;;;;;;;;;;;;;;;5184779;27;13326;-77
2021/12/01 14:38:58;;;;;;;;;;;;;;;;;;5184966;27;23133;-77
2021/12/01 14:41:23;;;;;;;;;56.00;42.00;;;;;;;;5181732;27;8901;-77
2021/12/01 14:43:55;;;;;;;;;57.33;48.00;;;;;;;;5178363;27;22706;-74
2021/12/01 14:46:21;;;;;;;;;52.50;44.00;;;;;;;;5178245;27;14120;-77
2021/12/01 14:48:47;;;;;;;;;55.50;47.00;;;;;;;;5178617;27;14333;-78
2021/12/01 14:51:12;;;;;;;;;51.67;43.00;;;;;;;;5182633;27;8827;-76
2021/12/01 14:53:37;;;;;;;;;;;;;;;;;;5187665;27;10339;-78
2021/12/01 14:56:04;;;;;;;;;42.67;39.33;;;;;;;;5182918;27;22606;-76
2021/12/01 14:58:29;;;;;;;;;;;;;;;;;;5184941;27;22547;-77
2021/12/01 15:00:59;;;;;;;;;44.67;37.67;;;;;;;;5182966;27;22097;-75
2021/12/01 15:03:31;;;;;;;;;52.33;42.67;;;;;;;;5182037;27;23880;-76
2021/12/01 15:05:57;;;;;;;;;48.67;40.33;;;;;;;;5181064;27;12271;-77
2021/12/01 15:08:23;;;;;;;;;31.67;22.00;;;;;;;;5182203;27;13465;-76
2021/12/01 15:10:49;;;;;;;;;53.33;42.00;;;;;;;;5178657;27;13543;-77
2021/12/01 15:13:21;;;;;;;;;51.33;41.00;;;;;;;;5178634;27;13437;-77
2021/12/01 15:15:52;;;;;;;;;41.33;36.33;;;;;;;;5182338;27;9188;-78
2021/12/01 15:18:18;;;;;;;;;;;;;;;;;;5184003;27;13484;-77
2021/12/01 15:20:43;;;;;;;;;;;;;;;;;;5184833;27;22505;-78
2021/12/01 15:23:09;;;;;;;;;34.00;34.00;;;;;;;;5183757;27;8791;-77
2021/12/01 15:25:34;;;;;;;;;;;;;;;;;;5184212;27;22790;-75
2021/12/01 15:28:01;;;;;;;;;35.00;28.00;;;;;;;;5185488;27;22412;-77
2021/12/01 15:30:27;;;;;;;;;36.00;32.00;;;;;;;;5185626;27;22617;-78
2021/12/01 15:32:53;;;;;;;;;;;;;;;;;;5188390;27;9816;-77
2021/12/01 15:35:18;;;;;;;;;;;;;;;;;;5188875;27;23147;-77
2021/12/01 15:37:43;;;;;;;;;27.33;26.00;;;;;;;;5186898;27;8794;-77
2021/12/01 15:40:09;;;;;;;;;27.67;24.00;;;;;;;;5186246;27;22974;-80
2021/12/01 15:42:34;;;;;;;;;34.33;25.67;;;;;;;;5167531;27;11346;-77
2021/12/01 15:44:59;;;;;;;;;34.00;33.00;;;;;;;;5178446;27;13917;-74
2021/12/01 15:47:25;;;;;;;;;29.00;24.67;;;;;;;;5185295;27;12442;-78
2021/12/01 15:49:51;;;;;;;;;32.67;29.00;;;;;;;;5184703;27;13681;-76
2021/12/01 15:52:16;;;;;;;;;;;;;;;;;;5187070;27;13296;-73
2021/12/01 15:54:41;;;;;;;;;23.50;19.50;;;;;;;;5165395;27;25069;-73
2021/12/01 15:57:06;;;;;;;;;;;;;;;;;;5187205;27;22516;-79
2021/12/01 15:59:32;;;;;;;;;25.00;20.00;;;;;;;;5185625;27;22082;-80
2021/12/01 16:01:57;;;;;;;;;23.75;22.50;;;;;;;;5181367;27;23016;-75
2021/12/01 16:04:22;;;;;;;;;21.25;15.25;;;;;;;;5184197;27;11613;-75
2021/12/01 16:06:48;;;;;;;;;22.00;18.00;;;;;;;;5184320;27;12226;-76
2021/12/01 16:09:16;;;;;;;;;17.50;14.50;;;;;;;;5184947;27;11742;-77
2021/12/01 16:11:41;;;;;;;;;12.50;11.25;;;;;;;;5178035;27;13397;-77
2021/12/01 16:14:08;;;;;;;;;;;;;;;;;;5186733;27;11681;-79
2021/12/01 16:16:33;;;;;;;;;26.00;22.50;;;;;;;;5184412;27;22199;-77
2021/12/01 16:18:59;;;;;;;;;24.00;20.00;;;;;;;;5184881;27;22521;-80
2021/12/01 16:21:25;;;;;;;;;31.67;27.33;;;;;;;;5185373;27;11590;-78
2021/12/01 16:23:50;;;;;;;;;26.67;24.00;;;;;;;;5183735;27;14576;-76
2021/12/01 16:26:17;;;;;;;;;23.67;22.33;;;;;;;;5184871;27;13230;-77
2021/12/01 16:28:42;;;;;;;;;;;;;;;;;;5168590;27;11526;-79
2021/12/01 16:31:07;;;;;;;;;29.33;27.33;;;;;;;;5185566;27;22462;-78
2021/12/01 16:33:32;;;;;;;;;;;;;;;;;;5186925;27;22605;-77
2021/12/01 16:35:58;;;;;;;;;27.00;19.67;;;;;;;;5173477;27;22342;-77
2021/12/01 16:38:23;;;;;;;;;37.67;36.33;;;;;;;;5180349;27;22989;-77
2021/12/01 16:40:48;;;;;;;;;41.33;39.00;;;;;;;;5169435;27;13627;-76
2021/12/01 16:43:15;;;;;;;;;48.67;39.67;;;;;;;;5159407;27;13503;-73
2021/12/01 16:45:41;;;;;;;;;52.00;45.00;;;;;;;;5144541;27;11823;-76
2021/12/01 16:48:06;;;;;;;;;54.00;44.33;;;;;;;;5163579;27;13852;-76
2021/12/01 16:50:31;;;;;;;;;;;;;;;;;;5186669;27;11510;-76
2021/12/01 16:52:57;;;;;;;;;54.25;48.25;;;;;;;;5165645;27;23552;-76
2021/12/01 16:55:26;;;;;;;;;60.67;49.00;;;;;;;;5183836;27;22553;-75
2021/12/01 16:57:51;;;;;;;;;52.00;43.67;;;;;;;;5164637;27;13951;-79
2021/12/01 17:00:21;;;;;;;;;57.33;47.33;;;;;;;;5184028;27;13485;-78
2021/12/01 17:02:46;;;;;;;;;;;;;;;;;;5185868;27;11980;-75
2021/12/01 17:05:14;;;;;;;;;62.00;50.67;;;;;;;;5181565;27;23623;-75
2021/12/01 17:10:11;;;;;;;;;;;;;;;;;;5186339;27;14472;-76
2021/12/01 17:12:36;;;;;;;;;67.00;53.33;;;;;;;;5184068;27;22297;-79
2021/12/01 17:15:02;;;;;;;;;;;;;;;;;;5185524;27;23693;-76
2021/12/01 17:17:27;;;;;;;;;62.00;49.33;;;;;;;;5184139;27;23676;-78
2021/12/01 17:19:54;;;;;;;;;62.00;52.67;;;;;;;;5182175;27;22522;-75
2021/12/01 17:22:19;;;;;;;;;;;;;;;;;;5185160;27;10366;-73
2021/12/01 17:24:45;;;;;;;;;65.00;54.25;;;;;;;;5182294;27;22708;-77
2021/12/01 17:27:19;;;;;;;;;66.67;51.33;;;;;;;;5183045;27;23024;-79
2021/12/01 17:29:44;;;;;;;;;65.67;51.00;;;;;;;;5181187;27;10704;-78
2021/12/01 17:32:14;;;;;;;;;65.67;53.33;;;;;;;;5184193;27;11578;-78
2021/12/01 17:34:40;;;;;;;;;70.00;58.33;;;;;;;;5184643;27;9182;-77
2021/12/01 17:37:06;;;;;;;;;63.00;49.67;;;;;;;;5178098;27;12172;-79
2021/12/01 17:39:31;;;;;;;;;;;;;;;;;;5186335;27;13317;-80
2021/12/01 17:41:57;;;;;;;;;67.00;55.00;;;;;;;;5185513;27;22395;-83
2021/12/01 17:44:22;;;;;;;;;74.00;56.00;;;;;;;;5185081;27;22673;-82
2021/12/01 17:46:48;;;;;;;;;67.00;54.00;;;;;;;;5184561;27;10639;-77
2021/12/01 17:49:13;;;;;;;;;;;;;;;;;;5187549;27;11294;-80
2021/12/01 17:51:39;;;;;;;;;72.00;58.00;;;;;;;;5183779;27;22232;-75
2021/12/01 17:54:05;;;;;;;;;74.50;58.75;;;;;;;;5175593;27;22594;-75
2021/12/01 17:56:30;;;;;;;;;76.67;59.00;;;;;;;;5178453;27;11391;-75
2021/12/01 17:58:55;;;;;;;;;76.75;60.25;;;;;;;;5182699;27;13444;-81
2021/12/01 18:01:20;;;;;;;;;;;;;;;;;;5191550;27;12356;-83
2021/12/01 18:03:45;;;;;;;;;;;;;;;;;;5192633;27;22331;-78
2021/12/01 18:06:11;;;;;;;;;62.50;52.25;;;;;;;;5191097;27;8817;-87
2021/12/01 18:08:39;;;;;;;;;51.33;41.00;;;;;;;;5191944;27;22635;-81
2021/12/01 18:11:04;;;;;;;;;55.33;45.00;;;;;;;;5177682;27;14630;-79
2021/12/01 18:13:29;;;;;;;;;57.00;47.00;;;;;;;;5177206;27;13471;-81
2021/12/01 18:15:56;;;;;;;;;62.67;49.00;;;;;;;;5183436;27;13485;-82
2021/12/01 18:18:21;;;;;;;;;;;;;;;;;;5188007;27;12300;-81
2021/12/01 18:20:47;;;;;;;;;53.00;43.33;;;;;;;;5167820;27;23603;-84
2021/12/01 18:23:12;;;;;;;;;54.33;44.00;;;;;;;;5182455;27;22543;-79
2021/12/01 18:25:39;;;;;;;;;55.00;45.67;;;;;;;;5198610;27;11645;-85
2021/12/01 18:28:04;;;;;;;;;58.33;48.33;;;;;;;;5206018;27;11516;-85
2021/12/01 18:30:30;;;;;;;;;58.00;48.33;;;;;;;;5203965;27;11609;-88
2021/12/01 18:32:56;;;;;;;;;57.00;46.33;;;;;;;;5207750;27;8758;-84
2021/12/01 18:35:21;;;;;;;;;64.67;50.67;;;;;;;;5205522;27;8805;-82
2021/12/01 18:37:47;;;;;;;;;64.00;52.00;;;;;;;;5205129;27;13888;-82
2021/12/01 18:40:13;;;;;;;;;64.33;52.67;;;;;;;;5205969;27;10689;-81
2021/12/01 18:42:38;;;;;;;;;66.00;53.00;;;;;;;;5187000;27;8952;-83
2021/12/01 18:45:06;;;;;;;;;69.00;56.00;;;;;;;;5182227;27;11802;-79
2021/12/01 18:47:32;;;;;;;;;65.33;53.00;;;;;;;;5179423;27;9356;-83
2021/12/01 18:49:58;;;;;;;;;69.67;55.00;;;;;;;;5172581;27;10967;-79
2021/12/01 18:52:23;;;;;;;;;59.33;49.67;;;;;;;;5169906;27;10465;-76
2021/12/01 18:54:48;;;;;;;;;69.33;55.33;;;;;;;;5167353;27;13439;-78
2021/12/01 18:57:17;;;;;;;;;58.67;49.67;;;;;;;;5176397;27;14548;-78
2021/12/01 18:59:42;;;;;;;;;16.33;12.00;;;;;;;;5178405;27;13451;-75
2021/12/01 19:02:07;;;;;;;;;65.67;50.67;;;;;;;;5179833;27;13271;-74
2021/12/01 19:04:34;;;;;;;;;59.00;49.67;;;;;;;;5162005;27;15322;-79
2021/12/01 19:06:59;;;;;;;;;61.67;50.67;;;;;;;;5185114;27;12578;-79
2021/12/01 19:09:25;;;;;;;;;61.00;51.67;;;;;;;;5183018;27;13456;-79
2021/12/01 19:11:52;;;;;;;;;59.67;47.00;;;;;;;;5180925;27;9868;-78
2021/12/01 19:14:17;;;;;;;;;66.00;52.00;;;;;;;;5180773;27;13338;-80
2021/12/01 19:16:43;;;;;;;;;60.33;49.00;;;;;;;;5181281;27;12740;-78
2021/12/01 19:19:08;;;;;;;;;64.67;52.00;;;;;;;;5181519;27;11412;-77
2021/12/01 19:21:35;;;;;;;;;64.00;52.00;;;;;;;;5180175;27;11446;-77
2021/12/01 19:24:01;;;;;;;;;67.67;52.67;;;;;;;;5159989;27;9191;-79
2021/12/01 19:26:27;;;;;;;;;65.00;54.00;;;;;;;;5179390;27;11672;-79
2021/12/01 19:28:53;;;;;;;;;70.50;55.50;;;;;;;;5179681;27;12949;-78
2021/12/01 19:31:18;;;;;;;;;78.75;61.25;;;;;;;;5179845;27;13232;-78
2021/12/01 19:33:44;;;;;;;;;71.67;54.33;;;;;;;;5176939;27;12238;-76
2021/12/01 19:36:10;;;;;;;;;60.00;50.33;;;;;;;;5177887;27;11398;-77
2021/12/01 19:38:36;;;;;;;;;65.33;53.00;;;;;;;;5178173;27;12775;-78
2021/12/01 19:41:01;;;;;;;;;68.00;51.67;;;;;;;;5178090;27;11398;-77
2021/12/01 19:43:27;;;;;;;;;70.00;55.67;;;;;;;;5179590;27;12535;-78
2021/12/01 19:45:53;;;;;;;;;63.00;51.67;;;;;;;;5177421;27;10550;-76
2021/12/01 19:48:19;;;;;;;;;68.67;54.00;;;;;;;;5179284;27;10601;-76
2021/12/01 19:50:45;;;;;;;;;63.67;52.00;;;;;;;;5179435;27;11432;-76
2021/12/01 19:53:10;;;;;;;;;63.67;53.00;;;;;;;;5179019;27;8997;-76
2021/12/01 19:55:35;;;;;;;;;61.00;50.00;;;;;;;;5179714;27;8896;-77
2021/12/01 19:58:01;;;;;;;;;67.00;53.33;;;;;;;;5177741;27;10355;-76
2021/12/01 20:00:29;;;;;;;;;64.00;52.00;;;;;;;;5179112;27;12297;-75
2021/12/01 20:02:55;;;;;;;;;59.33;48.67;;;;;;;;5158625;27;13528;-77
2021/12/01 20:05:21;;;;;;;;;66.00;53.33;;;;;;;;5176651;27;13301;-75
2021/12/01 20:07:47;;;;;;;;;64.33;51.67;;;;;;;;5179984;27;13437;-75
2021/12/01 20:10:15;;;;;;;;;64.33;50.33;;;;;;;;5179575;27;11834;-77
2021/12/01 20:12:43;;;;;;;;;56.33;48.00;;;;;;;;5180979;27;9037;-74
2021/12/01 20:15:09;;;;;;;;;64.00;53.00;;;;;;;;5182779;27;13905;-76
2021/12/01 20:17:34;;;;;;;;;62.67;51.33;;;;;;;;5183277;27;12223;-75
2021/12/01 20:20:00;;;;;;;;;65.67;52.67;;;;;;;;5183161;27;11659;-78
2021/12/01 20:22:26;;;;;;;;;61.67;52.33;;;;;;;;5184727;27;12748;-79
2021/12/01 20:24:53;;;;;;;;;69.00;55.00;;;;;;;;5166198;27;11772;-79
2021/12/01 20:27:19;;;;;;;;;67.67;54.67;;;;;;;;5165762;27;12124;-80
2021/12/01 20:29:45;;;;;;;;;58.67;48.33;;;;;;;;5166156;27;11795;-78
2021/12/01 20:32:10;;;;;;;;;65.33;53.00;;;;;;;;5184606;27;13228;-77
2021/12/01 20:34:36;;;;;;;;;65.33;52.67;;;;;;;;5184620;27;13236;-75
2021/12/01 20:37:02;;;;;;;;;66.33;54.33;;;;;;;;5184561;27;9253;-76
2021/12/01 20:39:28;;;;;;;;;67.33;54.00;;;;;;;;5182548;27;11716;-76
2021/12/01 20:41:54;;;;;;;;;59.33;48.00;;;;;;;;5183917;27;11572;-76
2021/12/01 20:44:22;;;;;;;;;63.00;52.00;;;;;;;;5165665;27;11193;-74
2021/12/01 20:47:11;;;;;;;;;60.33;49.00;;;;;;;;5183823;27;12856;-75
2021/12/01 20:52:44;;;;;;;;;57.33;49.00;;;;;;;;5184684;27;12257;-75
2021/12/01 21:01:22;;;;;;;;;60.00;49.00;;;;;;;;5183472;27;8935;-75
2021/12/01 21:02:58;;;;;;;;;62.00;51.00;;;;;;;;5183751;27;9630;-75
2021/12/01 21:05:25;;;;;;;;;64.00;50.67;;;;;;;;5183742;27;9916;-74
2021/12/01 21:07:50;;;;;;;;;60.33;49.00;;;;;;;;5183379;27;11732;-75
2021/12/01 21:10:20;;;;;;;;;56.67;47.00;;;;;;;;5182907;27;12221;-77
2021/12/01 21:12:47;;;;;;;;;57.67;48.67;;;;;;;;5183612;27;12789;-75
2021/12/01 21:15:13;;;;;;;;;58.67;47.00;;;;;;;;5183791;27;11467;-76
2021/12/01 21:17:38;;;;;;;;;56.00;45.33;;;;;;;;5183715;27;12185;-74
2021/12/01 21:20:04;;;;;;;;;59.33;48.33;;;;;;;;5181632;27;11449;-77
2021/12/01 21:22:30;;;;;;;;;56.33;44.00;;;;;;;;5182292;27;10638;-82
2021/12/01 21:24:57;;;;;;;;;53.67;45.00;;;;;;;;5183351;27;11971;-80
2021/12/01 21:27:22;;;;;;;;;54.67;45.67;;;;;;;;5184172;27;10434;-78
2021/12/01 21:29:50;;;;;;;;;50.00;42.00;;;;;;;;5138949;27;12427;-78
2021/12/01 21:32:20;;;;;;;;;43.33;38.67;;;;;;;;5097963;28;12071;-80
2021/12/01 21:34:46;;;;;;;;;49.67;39.67;;;;;;;;5100689;28;13444;-81
2021/12/01 21:37:12;;;;;;;;;43.33;38.00;;;;;;;;5066779;28;10590;-81
2021/12/01 21:39:39;;;;;;;;;41.00;36.67;;;;;;;;5101055;28;11447;-79
2021/12/01 21:42:05;;;;;;;;;42.33;38.00;;;;;;;;5101010;28;11459;-80
2021/12/01 21:44:30;;;;;;;;;37.00;33.33;;;;;;;;5100628;28;11404;-80
2021/12/01 21:49:00;;;;;;;;;49.33;40.00;;;;;;;;5121200;27;1428729;-80
2021/12/01 21:51:26;;;;;;;;;58.67;47.00;;;;;;;;5158507;27;22565;-82
2021/12/01 21:53:53;;;;;;;;;35.00;31.33;;;;;;;;5158529;27;12618;-80
2021/12/01 21:56:19;;;;;;;;;26.25;25.50;;;;;;;;5158283;27;13598;-82
2021/12/01 21:58:46;;;;;;;;;21.00;19.50;;;;;;;;5156852;27;13681;-80